Time;durP1;ratioP1;P1;durP2;ratioP2;P2;SDS_P1;SDS_P2;PMS_P1;PMS_P2;Temp;Humidity;BMP_temperature;BMP_pressure;BME280_temperature;BME280_humidity;BME280_pressure;Samples;Min_cycle;Max_cycle;Signal;HPM_P1;HPM_P2
2022/04/03 00:00:56;;;;;;;9.57;3.90;;;;;;;3.99;67.68;101799.16;5077793;28;20135;-72
2022/04/03 00:03:22;;;;;;;14.25;4.18;;;;;;;3.96;67.64;101797.88;5074225;28;20049;-71
2022/04/03 00:05:49;;;;;;;8.60;3.90;;;;;;;3.98;67.34;101803.03;5080714;28;20080;-71
2022/04/03 00:08:15;;;;;;;8.65;3.50;;;;;;;3.94;67.88;101794.66;5092032;28;20447;-71
2022/04/03 00:10:45;;;;;;;11.82;4.38;;;;;;;3.93;67.22;101798.53;5079833;28;20677;-71
2022/04/03 00:13:12;;;;;;;15.07;4.15;;;;;;;3.92;68.07;101802.38;5077892;28;20097;-70
2022/04/03 00:15:41;;;;;;;9.63;3.83;;;;;;;3.92;67.36;101802.38;5079502;28;20094;-70
2022/04/03 00:18:08;;;;;;;10.60;4.28;;;;;;;3.90;67.11;101793.69;5070949;28;20127;-70
2022/04/03 00:20:40;;;;;;;9.07;3.30;;;;;;;3.90;67.57;101801.91;5075855;28;20052;-71
2022/04/03 00:23:07;;;;;;;7.82;3.72;;;;;;;3.84;68.18;101802.41;5069108;28;20170;-70
2022/04/03 00:25:34;;;;;;;7.50;3.17;;;;;;;3.84;68.28;101808.69;5068789;28;20053;-71
2022/04/03 00:28:01;;;;;;;8.88;4.10;;;;;;;3.78;69.44;101804.50;5073603;28;20048;-71
2022/04/03 00:30:27;;;;;;;11.32;4.15;;;;;;;3.78;69.25;101809.19;5077351;28;20075;-71
2022/04/03 00:32:54;;;;;;;8.07;3.47;;;;;;;3.74;69.90;101806.28;5069381;28;20854;-71
2022/04/03 00:35:21;;;;;;;11.35;3.95;;;;;;;3.69;68.85;101800.19;5073175;28;20059;-71
2022/04/03 00:37:47;;;;;;;12.45;3.92;;;;;;;3.65;68.87;101807.44;5069540;28;20052;-70
2022/04/03 00:40:15;;;;;;;8.02;3.97;;;;;;;3.61;68.92;101798.28;5077505;28;20409;-70
2022/04/03 00:42:42;;;;;;;7.28;3.38;;;;;;;3.60;68.98;101808.41;5075694;28;20048;-70
2022/04/03 00:45:09;;;;;;;9.15;3.72;;;;;;;3.55;69.20;101805.84;5075621;28;20059;-71
2022/04/03 00:47:36;;;;;;;10.10;4.05;;;;;;;3.55;69.35;101810.50;5069167;28;20044;-72
2022/04/03 00:50:03;;;;;;;10.32;3.80;;;;;;;3.54;68.71;101811.66;5079704;28;20123;-72
2022/04/03 00:52:29;;;;;;;8.70;3.55;;;;;;;3.51;69.45;101810.34;5068356;28;20048;-72
2022/04/03 00:54:56;;;;;;;9.77;3.90;;;;;;;3.47;70.30;101803.91;5072937;28;20052;-70
2022/04/03 00:57:26;;;;;;;10.32;4.30;;;;;;;3.44;70.52;101803.78;5067988;28;20423;-70
2022/04/03 00:59:54;;;;;;;11.65;4.18;;;;;;;3.38;70.43;101803.13;5079141;28;20478;-71
2022/04/03 01:02:20;;;;;;;9.10;3.88;;;;;;;3.34;70.54;101804.88;5074485;28;20048;-71
2022/04/03 01:04:47;;;;;;;12.70;3.70;;;;;;;3.27;70.49;101803.78;5078974;28;20105;-71
2022/04/03 01:07:16;;;;;;;10.65;3.55;;;;;;;3.20;71.67;101804.25;5078308;28;20048;-71
2022/04/03 01:09:44;;;;;;;10.15;4.00;;;;;;;3.16;71.75;101797.81;5087917;28;20056;-72
2022/04/03 01:12:11;;;;;;;14.40;4.30;;;;;;;3.16;72.07;101802.47;5071489;28;20045;-71
2022/04/03 01:14:41;;;;;;;6.25;3.25;;;;;;;3.10;72.51;101803.78;5069943;28;20408;-71
2022/04/03 01:17:10;;;;;;;10.73;3.95;;;;;;;3.06;72.52;101805.53;5080918;28;20058;-71
2022/04/03 01:19:41;;;;;;;9.20;3.90;;;;;;;3.02;73.31;101810.03;5073345;28;20110;-71
2022/04/03 01:22:07;;;;;;;11.77;4.28;;;;;;;3.01;73.35;101802.97;5079495;28;20066;-71
2022/04/03 01:24:34;;;;;;;9.07;3.95;;;;;;;2.99;72.68;101800.53;5075857;28;20167;-70
2022/04/03 01:27:03;;;;;;;13.80;4.20;;;;;;;2.99;72.90;101811.47;5068415;28;20113;-70
2022/04/03 01:29:29;;;;;;;12.93;4.68;;;;;;;2.96;72.55;101809.38;5078854;28;20052;-70
2022/04/03 01:31:56;;;;;;;10.20;4.55;;;;;;;2.90;72.65;101810.66;5078685;28;20048;-70
2022/04/03 01:34:22;;;;;;;9.48;4.22;;;;;;;2.87;74.36;101805.81;5067625;28;20135;-70
2022/04/03 01:36:49;;;;;;;10.48;4.03;;;;;;;2.87;73.53;101807.78;5067239;28;20469;-70
2022/04/03 01:39:16;;;;;;;11.70;4.80;;;;;;;2.87;74.27;101811.28;5083271;28;20892;-71
2022/04/03 01:41:43;;;;;;;10.23;4.20;;;;;;;2.81;73.42;101801.66;5082640;28;20078;-70
2022/04/03 01:44:12;;;;;;;12.23;4.35;;;;;;;2.86;73.50;101798.75;5083340;28;20047;-71
2022/04/03 01:46:39;;;;;;;11.32;4.53;;;;;;;2.87;73.10;101805.03;5077296;28;20083;-71
2022/04/03 01:49:06;;;;;;;10.40;4.25;;;;;;;2.88;74.05;101803.91;5072687;28;20048;-70
2022/04/03 01:51:33;;;;;;;13.18;4.63;;;;;;;2.87;73.53;101805.81;5087350;28;20563;-69
2022/04/03 01:54:00;;;;;;;10.35;4.20;;;;;;;2.86;73.76;101804.22;5069609;28;20325;-71
2022/04/03 01:56:27;;;;;;;12.38;4.68;;;;;;;2.88;73.16;101801.97;5066891;28;20129;-70
2022/04/03 01:58:54;;;;;;;11.30;4.60;;;;;;;2.88;72.66;101807.44;5085022;28;20056;-70
2022/04/03 02:01:21;;;;;;;11.45;4.78;;;;;;;2.82;73.14;101796.97;5079556;28;20048;-70
2022/04/03 02:03:47;;;;;;;12.63;4.72;;;;;;;2.80;73.38;101796.50;5079301;28;20048;-70
2022/04/03 02:06:15;;;;;;;12.80;4.40;;;;;;;2.78;72.95;101799.56;5080780;28;20051;-70
2022/04/03 02:08:43;;;;;;;12.60;5.47;;;;;;;2.77;73.74;101797.94;5088799;28;20049;-70
2022/04/03 02:11:10;;;;;;;14.27;5.20;;;;;;;2.82;73.98;101803.25;5079027;28;20044;-71
2022/04/03 02:13:36;;;;;;;11.85;5.07;;;;;;;2.76;73.99;101793.59;5080506;28;20048;-71
2022/04/03 02:16:04;;;;;;;12.65;4.90;;;;;;;2.76;73.58;101804.53;5078697;28;20143;-70
2022/04/03 02:18:30;;;;;;;9.50;4.60;;;;;;;2.76;74.58;101795.53;5077692;28;20052;-71
2022/04/03 02:20:57;;;;;;;12.05;4.47;;;;;;;2.67;74.00;101792.78;5073958;28;20071;-70
2022/04/03 02:23:23;;;;;;;14.55;5.43;;;;;;;2.62;74.01;101801.13;5078185;28;20048;-70
2022/04/03 02:25:52;;;;;;;12.45;4.95;;;;;;;2.59;74.97;101796.28;5068271;28;20060;-69
2022/04/03 02:28:19;;;;;;;12.82;5.10;;;;;;;2.55;75.46;101795.31;5069695;28;20053;-69
2022/04/03 02:30:47;;;;;;;10.73;4.70;;;;;;;2.51;75.59;101802.53;5066791;28;20923;-69
2022/04/03 02:33:14;;;;;;;14.45;5.13;;;;;;;2.50;76.05;101800.94;5078747;28;20059;-70
2022/04/03 02:35:41;;;;;;;10.15;5.18;;;;;;;2.42;77.20;101798.97;5087698;28;20050;-71
2022/04/03 02:38:08;;;;;;;16.67;5.28;;;;;;;2.40;77.29;101802.03;5076183;28;20484;-70
2022/04/03 02:40:34;;;;;;;12.80;4.78;;;;;;;2.35;78.19;101799.44;5079483;28;20139;-70
2022/04/03 02:43:02;;;;;;;10.90;5.10;;;;;;;2.33;78.82;101798.16;5072406;28;20135;-70
2022/04/03 02:45:29;;;;;;;12.00;4.68;;;;;;;2.30;78.74;101799.56;5070277;28;20052;-69
2022/04/03 02:47:56;;;;;;;13.27;5.32;;;;;;;2.28;78.45;101798.28;5068178;28;20052;-71
2022/04/03 02:50:25;;;;;;;12.55;5.07;;;;;;;2.27;79.33;101802.16;5067092;28;20466;-70
2022/04/03 02:52:53;;;;;;;11.32;5.30;;;;;;;2.19;79.13;101803.72;5079995;28;20052;-71
2022/04/03 02:55:21;;;;;;;12.57;5.22;;;;;;;2.13;79.86;101804.97;5082558;28;20139;-72
2022/04/03 02:57:48;;;;;;;12.30;4.57;;;;;;;2.01;79.53;101806.69;5071146;28;20095;-71
2022/04/03 03:00:15;;;;;;;12.90;5.07;;;;;;;1.87;79.86;101798.59;5074598;28;20214;-69
2022/04/03 03:02:42;;;;;;;10.68;4.43;;;;;;;1.77;80.89;101801.59;5079928;28;20052;-70
2022/04/03 03:05:09;;;;;;;12.95;5.10;;;;;;;1.69;80.93;101801.53;5080873;28;20080;-69
2022/04/03 03:07:37;;;;;;;12.23;5.43;;;;;;;1.53;81.66;101811.22;5081225;28;20054;-71
2022/04/03 03:10:06;;;;;;;12.80;4.47;;;;;;;1.42;82.73;101810.63;5073117;28;20073;-70
2022/04/03 03:12:33;;;;;;;11.75;4.55;;;;;;;1.28;83.93;101800.94;5078785;28;20076;-70
2022/04/03 03:14:59;;;;;;;11.52;4.38;;;;;;;1.15;84.83;101809.97;5076146;28;20632;-70
2022/04/03 03:17:27;;;;;;;14.77;5.03;;;;;;;1.10;84.93;101801.88;5084907;28;20060;-69
2022/04/03 03:19:53;;;;;;;13.45;5.47;;;;;;;1.03;85.65;101810.50;5073460;28;20051;-69
2022/04/03 03:22:20;;;;;;;12.32;5.00;;;;;;;1.00;86.36;101802.94;5073361;28;20143;-70
2022/04/03 03:24:47;;;;;;;14.35;5.20;;;;;;;0.96;86.85;101809.28;5071143;28;20067;-69
2022/04/03 03:27:13;;;;;;;13.07;5.10;;;;;;;0.88;86.97;101812.75;5072760;28;20052;-70
2022/04/03 03:29:39;;;;;;;12.15;5.18;;;;;;;0.82;87.24;101816.69;5071718;28;20549;-70
2022/04/03 03:32:07;;;;;;;6.90;3.80;;;;;;;0.71;88.26;101809.84;5074518;28;20135;-70
2022/04/03 03:34:34;;;;;;;10.07;4.60;;;;;;;0.67;89.15;101812.38;5070252;28;20055;-70
2022/04/03 03:37:01;;;;;;;11.07;4.60;;;;;;;0.63;89.17;101811.38;5070687;28;20727;-71
2022/04/03 03:39:28;;;;;;;10.18;4.95;;;;;;;0.66;89.89;101809.94;5079841;28;20866;-69
2022/04/03 03:41:55;;;;;;;15.45;8.15;;;;;;;0.64;89.99;101814.91;5086320;28;20619;-71
2022/04/03 03:44:22;;;;;;;13.55;5.57;;;;;;;0.65;89.70;101824.69;5078576;28;20052;-69
2022/04/03 03:46:49;;;;;;;16.48;5.95;;;;;;;0.65;90.44;101820.06;5070933;28;20072;-72
2022/04/03 03:49:16;;;;;;;12.70;5.43;;;;;;;0.59;91.70;101825.91;5070370;28;20722;-70
2022/04/03 03:51:43;;;;;;;14.75;6.13;;;;;;;0.57;91.24;101822.69;5068684;28;20144;-69
2022/04/03 03:54:10;;;;;;;15.50;5.53;;;;;;;0.51;91.20;101826.63;5069940;28;20508;-69
2022/04/03 03:56:36;;;;;;;15.23;5.72;;;;;;;0.53;91.41;101832.56;5070147;28;20071;-69
2022/04/03 03:59:05;;;;;;;13.02;5.93;;;;;;;0.52;91.91;101826.31;5079249;28;20082;-72
2022/04/03 04:01:32;;;;;;;15.90;5.90;;;;;;;0.54;92.26;101826.00;5087438;28;20083;-69
2022/04/03 04:03:59;;;;;;;13.40;5.93;;;;;;;0.55;92.34;101823.00;5077196;28;20483;-70
2022/04/03 04:06:25;;;;;;;12.82;5.18;;;;;;;0.50;92.33;101830.47;5077399;28;20058;-71
2022/04/03 04:08:52;;;;;;;15.18;5.70;;;;;;;0.43;92.54;101830.84;5086123;28;20139;-71
2022/04/03 04:11:18;;;;;;;11.45;5.35;;;;;;;0.38;92.67;101838.31;5073387;28;20056;-70
2022/04/03 04:13:45;;;;;;;14.48;6.03;;;;;;;0.38;92.49;101830.97;5074920;28;20173;-72
2022/04/03 04:16:12;;;;;;;12.18;5.72;;;;;;;0.38;92.99;101841.03;5081609;28;20076;-70
2022/04/03 04:18:39;;;;;;;16.35;5.80;;;;;;;0.37;92.99;101836.72;5079792;28;20080;-70
2022/04/03 04:21:06;;;;;;;13.38;5.53;;;;;;;0.32;93.52;101844.97;5067584;28;20044;-70
2022/04/03 04:23:32;;;;;;;15.63;6.03;;;;;;;0.30;93.76;101842.53;5074163;28;20148;-70
2022/04/03 04:25:59;;;;;;;16.92;5.80;;;;;;;0.33;93.73;101843.88;5070651;28;20532;-70
2022/04/03 04:28:26;;;;;;;14.02;5.25;;;;;;;0.34;93.39;101846.28;5072398;28;20732;-71
2022/04/03 04:30:52;;;;;;;13.05;5.93;;;;;;;0.35;93.07;101849.81;5068603;28;20664;-72
2022/04/03 04:33:19;;;;;;;14.55;5.53;;;;;;;0.27;93.01;101839.63;5069462;28;20060;-70
2022/04/03 04:35:45;;;;;;;14.57;5.72;;;;;;;0.17;94.06;101842.53;5070424;28;20428;-71
2022/04/03 04:38:12;;;;;;;13.52;5.68;;;;;;;0.07;94.28;101850.88;5078926;28;20047;-71
2022/04/03 04:40:38;;;;;;;15.15;6.30;;;;;;;0.10;94.70;101851.06;5085126;28;20512;-71
2022/04/03 04:43:05;;;;;;;15.13;6.07;;;;;;;0.16;95.87;101852.59;5087007;28;20148;-70
2022/04/03 04:45:31;;;;;;;14.55;6.18;;;;;;;0.20;96.19;101852.81;5086603;28;20091;-70
2022/04/03 04:48:00;;;;;;;15.90;6.40;;;;;;;0.16;96.00;101855.31;5070235;28;20449;-71
2022/04/03 04:50:28;;;;;;;13.35;5.57;;;;;;;0.15;96.67;101866.50;5069421;28;20052;-71
2022/04/03 04:52:59;;;;;;;15.02;6.75;;;;;;;0.08;96.67;101866.09;5076443;28;20105;-71
2022/04/03 04:55:26;;;;;;;18.10;5.80;;;;;;;0.06;96.88;101868.34;5071098;28;20055;-70
2022/04/03 04:57:56;;;;;;;14.23;6.45;;;;;;;0.03;97.25;101870.53;5070118;28;20056;-70
2022/04/03 05:00:26;;;;;;;15.95;7.03;;;;;;;0.03;97.42;101873.25;5070439;28;20086;-71
2022/04/03 05:02:53;;;;;;;14.13;5.80;;;;;;;-0.02;96.82;101870.63;5082231;28;20080;-70
2022/04/03 05:05:26;;;;;;;13.77;6.70;;;;;;;-0.02;96.35;101873.34;5077902;28;20054;-70
2022/04/03 05:07:58;;;;;;;15.65;6.43;;;;;;;0.04;95.82;101884.97;5086528;28;20134;-70
2022/04/03 05:10:25;;;;;;;12.80;5.93;;;;;;;0.00;95.95;101881.22;5073215;28;20118;-70
2022/04/03 05:12:53;;;;;;;17.23;6.55;;;;;;;-0.04;95.66;101883.72;5078331;28;20405;-70
2022/04/03 05:15:20;;;;;;;14.13;6.55;;;;;;;-0.03;95.84;101895.41;5075699;28;20437;-70
2022/04/03 05:17:47;;;;;;;18.35;6.28;;;;;;;-0.02;96.16;101888.88;5084621;28;20233;-71
2022/04/03 05:20:15;;;;;;;16.00;6.72;;;;;;;-0.07;96.98;101887.03;5072180;28;20127;-71
2022/04/03 05:22:43;;;;;;;15.05;6.13;;;;;;;-0.05;96.50;101892.19;5070939;28;20139;-71
2022/04/03 05:25:13;;;;;;;14.98;6.30;;;;;;;-0.02;96.37;101892.41;5069783;28;20519;-72
2022/04/03 05:27:41;;;;;;;15.02;5.63;;;;;;;-0.06;96.16;101896.00;5071425;28;20086;-69
2022/04/03 05:30:09;;;;;;;15.68;5.93;;;;;;;-0.14;96.35;101889.34;5070544;28;20054;-71
2022/04/03 05:32:39;;;;;;;15.57;6.63;;;;;;;-0.20;96.58;101884.28;5073110;28;20143;-72
2022/04/03 05:35:07;;;;;;;15.25;6.57;;;;;;;-0.31;97.62;101875.47;5069412;28;20052;-72
2022/04/03 05:37:41;;;;;;;15.70;6.85;;;;;;;-0.32;98.53;101878.50;5068650;28;20584;-71
2022/04/03 05:40:11;;;;;;;17.35;7.35;;;;;;;-0.30;99.42;101890.69;5078193;28;20056;-71
2022/04/03 05:42:39;;;;;;;16.45;6.72;;;;;;;-0.31;100.00;101882.81;5080735;28;20086;-70
2022/04/03 05:45:07;;;;;;;17.35;6.97;;;;;;;-0.31;100.00;101880.91;5086956;28;20056;-70
2022/04/03 05:47:34;;;;;;;19.13;8.80;;;;;;;-0.25;99.93;101893.34;5077755;28;20087;-70
2022/04/03 05:50:07;;;;;;;16.92;8.55;;;;;;;-0.16;99.10;101891.53;5077871;28;20132;-71
2022/04/03 05:52:41;;;;;;;20.08;10.63;;;;;;;-0.09;98.71;101896.59;5068144;28;20127;-70
2022/04/03 05:55:09;;;;;;;19.33;9.55;;;;;;;-0.04;98.79;101902.75;5072820;28;20488;-72
2022/04/03 05:57:36;;;;;;;19.88;7.68;;;;;;;0.03;98.25;101904.31;5079591;28;20056;-71
2022/04/03 06:00:05;;;;;;;16.15;7.32;;;;;;;0.09;96.80;101906.63;5076946;28;20533;-71
2022/04/03 06:02:59;;;;;;;17.52;7.65;;;;;;;0.15;96.00;101907.34;5077233;28;20135;-71
2022/04/03 06:05:29;;;;;;;17.60;8.07;;;;;;;0.20;95.32;101910.00;5071407;28;20098;-72
2022/04/03 06:08:02;;;;;;;16.98;7.28;;;;;;;0.24;94.83;101900.94;5080036;28;20060;-71
2022/04/03 06:10:30;;;;;;;16.85;7.30;;;;;;;0.28;94.89;101909.28;5069943;28;20055;-71
2022/04/03 06:13:06;;;;;;;15.63;6.03;;;;;;;0.23;93.50;101903.94;5073240;28;20769;-71
2022/04/03 06:15:37;;;;;;;14.70;6.47;;;;;;;0.28;92.89;101912.00;5083753;28;20143;-72
2022/04/03 06:18:06;;;;;;;14.70;5.75;;;;;;;0.32;92.16;101913.03;5077357;28;20056;-72
2022/04/03 06:20:33;;;;;;;13.63;6.22;;;;;;;0.36;91.99;101917.56;5084803;28;20052;-73
2022/04/03 06:23:01;;;;;;;15.45;6.40;;;;;;;0.45;91.97;101912.22;5070216;28;20508;-72
2022/04/03 06:25:27;;;;;;;13.35;6.32;;;;;;;0.54;92.14;101916.69;5067981;28;20067;-72
2022/04/03 06:27:55;;;;;;;18.33;6.03;;;;;;;0.61;92.46;101919.00;5070904;28;20040;-73
2022/04/03 06:30:22;;;;;;;14.13;5.40;;;;;;;0.59;90.22;101911.16;5071626;28;20051;-72
2022/04/03 06:32:49;;;;;;;9.73;4.47;;;;;;;0.62;89.20;101917.91;5067242;28;20174;-71
2022/04/03 06:35:15;;;;;;;1.70;1.15;;;;;;;0.67;88.50;101920.53;5080898;28;20499;-73
2022/04/03 06:37:42;;;;;;;11.52;4.68;;;;;;;0.74;88.35;101923.66;5068434;28;20052;-71
2022/04/03 06:40:10;;;;;;;15.65;4.95;;;;;;;0.76;87.00;101919.53;5074136;28;20158;-71
2022/04/03 06:42:37;;;;;;;13.43;4.97;;;;;;;0.83;86.34;101922.66;5081816;28;20059;-71
2022/04/03 06:45:04;;;;;;;15.20;5.75;;;;;;;0.95;86.07;101919.41;5086737;28;20052;-73
2022/04/03 06:47:31;;;;;;;13.43;5.57;;;;;;;1.04;86.33;101923.84;5068146;28;20135;-72
2022/04/03 06:49:59;;;;;;;15.73;6.00;;;;;;;1.09;85.02;101923.75;5067913;28;20061;-71
2022/04/03 06:52:25;;;;;;;7.90;3.78;;;;;;;1.14;83.84;101922.81;5069984;28;20465;-72
2022/04/03 06:54:52;;;;;;;11.50;5.15;;;;;;;1.17;83.09;101919.47;5083680;28;20080;-72
2022/04/03 06:57:19;;;;;;;13.85;5.20;;;;;;;1.28;82.99;101924.41;5073504;28;20053;-71
2022/04/03 06:59:46;;;;;;;10.07;3.80;;;;;;;1.35;83.27;101924.78;5077430;28;20052;-73
2022/04/03 07:02:13;;;;;;;14.40;5.40;;;;;;;1.44;82.51;101920.25;5087270;28;20134;-72
2022/04/03 07:04:39;;;;;;;18.27;6.63;;;;;;;1.53;81.14;101918.41;5082229;28;20045;-72
2022/04/03 07:07:06;;;;;;;12.63;5.63;;;;;;;1.68;81.87;101915.31;5083215;28;20053;-71
2022/04/03 07:09:38;;;;;;;12.82;2.90;;;;;;;1.73;81.37;101919.84;5081192;28;20090;-70
2022/04/03 07:12:05;;;;;;;13.82;5.65;;;;;;;1.82;80.75;101921.50;5079949;28;20048;-74
2022/04/03 07:14:31;;;;;;;10.75;5.78;;;;;;;1.89;80.51;101921.88;5080036;28;20165;-72
2022/04/03 07:16:58;;;;;;;15.80;5.63;;;;;;;2.00;79.45;101920.50;5085998;28;20051;-73
2022/04/03 07:19:25;;;;;;;8.07;2.08;;;;;;;2.11;78.34;101926.53;5080799;28;20561;-73
2022/04/03 07:21:51;;;;;;;18.27;5.85;;;;;;;2.25;78.97;101919.88;5070909;28;20064;-73
2022/04/03 07:24:18;;;;;;;13.65;5.30;;;;;;;2.37;78.76;101925.56;5075765;28;20044;-72
2022/04/03 07:26:45;;;;;;;14.45;6.53;;;;;;;2.51;78.42;101933.69;5073801;28;20662;-72
2022/04/03 07:29:11;;;;;;;13.25;5.55;;;;;;;2.62;79.02;101924.91;5080533;28;20127;-73
2022/04/03 07:31:38;;;;;;;14.30;5.68;;;;;;;2.74;77.99;101927.03;5078139;28;20154;-73
2022/04/03 07:34:04;;;;;;;11.77;5.35;;;;;;;2.83;77.36;101930.59;5081448;28;20159;-73
2022/04/03 07:36:31;;;;;;;11.00;4.95;;;;;;;2.96;76.93;101926.16;5072364;28;20127;-73
2022/04/03 07:38:57;;;;;;;8.80;4.55;;;;;;;3.05;73.80;101930.53;5071953;28;20159;-73
2022/04/03 07:41:24;;;;;;;4.60;3.00;;;;;;;3.11;72.66;101939.38;5085244;28;20060;-73
2022/04/03 07:43:50;;;;;;;12.93;5.40;;;;;;;3.28;73.07;101939.41;5080161;28;20044;-72
2022/04/03 07:46:17;;;;;;;11.60;4.90;;;;;;;3.35;69.10;101943.31;5080984;28;20055;-72
2022/04/03 07:48:44;;;;;;;11.45;5.00;;;;;;;3.49;69.37;101937.66;5072602;28;20056;-74
2022/04/03 07:51:11;;;;;;;5.03;2.85;;;;;;;3.62;69.43;101940.28;5070568;28;20135;-73
2022/04/03 07:53:38;;;;;;;12.85;5.60;;;;;;;3.73;68.56;101944.31;5071035;28;20924;-73
2022/04/03 07:56:05;;;;;;;14.38;5.45;;;;;;;3.82;68.81;101938.81;5070816;28;20048;-72
2022/04/03 07:58:33;;;;;;;15.23;5.95;;;;;;;3.90;67.50;101944.28;5070138;28;20480;-73
2022/04/03 08:01:00;;;;;;;12.93;5.45;;;;;;;4.04;68.90;101944.13;5074420;28;20138;-74
2022/04/03 08:03:27;;;;;;;11.95;5.32;;;;;;;4.18;68.18;101945.56;5084221;28;20046;-73
2022/04/03 08:05:54;;;;;;;13.85;6.45;;;;;;;4.36;66.56;101944.38;5078298;28;20045;-73
2022/04/03 08:08:21;;;;;;;10.82;3.97;;;;;;;4.38;60.82;101953.09;5084595;28;20048;-74
2022/04/03 08:10:47;;;;;;;13.15;5.30;;;;;;;4.50;59.93;101947.75;5072531;28;20052;-74
2022/04/03 08:13:15;;;;;;;8.85;4.40;;;;;;;4.70;61.53;101949.75;5079721;28;20143;-74
2022/04/03 08:15:41;;;;;;;11.77;4.85;;;;;;;4.81;58.45;101951.03;5079440;28;20048;-71
2022/04/03 08:18:08;;;;;;;15.27;6.07;;;;;;;4.97;59.52;101954.81;5077965;28;20048;-72
2022/04/03 08:20:34;;;;;;;5.63;2.88;;;;;;;4.95;56.11;101957.09;5072689;28;20673;-73
2022/04/03 08:23:03;;;;;;;10.77;4.00;;;;;;;4.87;55.85;101954.38;5079453;28;20056;-74
2022/04/03 08:25:31;;;;;;;9.90;4.70;;;;;;;4.99;56.95;101958.03;5072839;28;20090;-72
2022/04/03 08:28:00;;;;;;;8.15;3.45;;;;;;;4.98;56.06;101961.91;5073224;28;20561;-72
2022/04/03 08:30:32;;;;;;;12.10;4.40;;;;;;;4.97;56.06;101963.03;5085307;28;20040;-71
2022/04/03 08:33:01;;;;;;;9.25;4.70;;;;;;;5.04;56.31;101966.06;5082415;28;20066;-72
2022/04/03 08:35:30;;;;;;;8.50;4.03;;;;;;;5.13;58.12;101961.34;5069797;28;20131;-72
2022/04/03 08:37:56;;;;;;;8.07;3.15;;;;;;;5.28;57.43;101969.03;5072143;28;20055;-71
2022/04/03 08:40:25;;;;;;;7.50;3.08;;;;;;;5.34;56.64;101962.19;5075928;28;20051;-72
2022/04/03 08:42:54;;;;;;;7.70;2.55;;;;;;;5.39;55.80;101973.00;5082035;28;20059;-71
2022/04/03 08:45:22;;;;;;;7.18;2.70;;;;;;;5.42;56.13;101966.03;5078498;28;20517;-72
2022/04/03 08:47:57;;;;;;;7.28;3.00;;;;;;;5.38;55.54;101973.31;5078685;28;20056;-72
2022/04/03 08:50:27;;;;;;;8.30;2.95;;;;;;;5.33;55.76;101968.81;5070172;28;20048;-72
2022/04/03 08:52:57;;;;;;;5.80;2.95;;;;;;;5.34;55.40;101972.38;5070805;28;20070;-73
2022/04/03 08:55:23;;;;;;;7.18;2.83;;;;;;;5.27;55.72;101967.41;5075895;28;20487;-71
2022/04/03 08:57:50;;;;;;;10.18;3.78;;;;;;;5.34;56.55;101977.88;5072660;28;20538;-71
2022/04/03 09:00:18;;;;;;;7.38;1.95;;;;;;;5.43;55.18;101971.19;5074137;28;20058;-72
2022/04/03 09:02:47;;;;;;;5.43;1.85;;;;;;;5.38;54.19;101979.63;5071253;28;20060;-71
2022/04/03 09:05:14;;;;;;;7.25;2.33;;;;;;;5.41;54.30;101973.44;5068658;28;20044;-73
2022/04/03 09:07:42;;;;;;;5.45;2.60;;;;;;;5.46;54.81;101977.16;5068106;28;20492;-72
2022/04/03 09:10:14;;;;;;;5.57;2.47;;;;;;;5.34;53.57;101977.88;5068744;28;20057;-72
2022/04/03 09:12:51;;;;;;;4.22;1.75;;;;;;;5.34;54.17;101977.88;5070712;28;20131;-72
2022/04/03 09:15:22;;;;;;;6.97;2.80;;;;;;;5.34;55.28;101981.41;5073652;28;20547;-72
2022/04/03 09:17:58;;;;;;;7.28;2.38;;;;;;;5.35;55.16;101991.28;5079823;28;20043;-72
2022/04/03 09:20:27;;;;;;;4.80;1.98;;;;;;;5.35;55.17;101979.47;5065952;28;20064;-72
2022/04/03 09:22:59;;;;;;;6.75;2.90;;;;;;;5.35;55.12;101977.53;5069985;28;20501;-73
2022/04/03 09:25:39;;;;;;;11.23;3.50;;;;;;;5.38;55.68;101981.56;5071482;28;20040;-71
2022/04/03 09:28:07;;;;;;;6.40;3.00;;;;;;;5.31;54.80;101981.28;5074004;28;20487;-72
2022/04/03 09:30:54;;;;;;;4.68;2.33;;;;;;;5.28;55.31;101977.25;5072853;28;20059;-72
2022/04/03 09:33:22;;;;;;;10.05;2.92;;;;;;;5.27;55.62;101985.81;5071804;28;20414;-72
2022/04/03 09:36:02;;;;;;;9.98;3.63;;;;;;;5.27;56.06;101975.63;5074903;28;20129;-72
2022/04/03 09:38:30;;;;;;;6.95;2.85;;;;;;;5.35;57.20;101974.00;5069496;28;20075;-73
2022/04/03 09:40:58;;;;;;;4.22;1.52;;;;;;;5.08;56.17;101972.53;5075490;28;20567;-72
2022/04/03 09:43:34;;;;;;;6.25;2.63;;;;;;;5.16;57.33;101977.16;5074708;28;20127;-72
2022/04/03 09:46:04;;;;;;;9.75;3.20;;;;;;;5.17;57.03;101965.03;5076006;28;20519;-73
2022/04/03 09:48:32;;;;;;;8.68;3.50;;;;;;;5.26;58.15;101968.56;5075295;28;20056;-73
2022/04/03 09:51:06;;;;;;;5.75;2.38;;;;;;;5.30;58.90;101971.44;5068156;28;20564;-75
2022/04/03 09:53:46;;;;;;;7.22;2.78;;;;;;;5.32;58.64;101966.41;5083766;28;20139;-73
2022/04/03 09:56:27;;;;;;;5.80;2.60;;;;;;;5.31;58.63;101973.84;5080380;28;20054;-72
2022/04/03 09:58:58;;;;;;;1.52;0.73;;;;;;;5.25;58.31;101968.88;5075005;28;20049;-73
2022/04/03 10:01:31;;;;;;;5.35;2.63;;;;;;;5.27;58.32;101972.88;5065605;28;20072;-73
2022/04/03 10:04:00;;;;;;;7.72;2.78;;;;;;;5.37;58.54;101964.28;5085199;28;20047;-71
2022/04/03 10:06:28;;;;;;;7.95;2.80;;;;;;;5.55;60.00;101955.94;5070456;28;20048;-74
2022/04/03 10:08:55;;;;;;;4.38;1.65;;;;;;;5.56;58.53;101961.09;5073264;28;20055;-72
2022/04/03 10:11:23;;;;;;;5.55;2.20;;;;;;;5.80;59.35;101960.44;5067315;28;20165;-74
2022/04/03 10:13:50;;;;;;;3.50;1.23;;;;;;;5.91;60.16;101957.00;5070143;28;20277;-71
2022/04/03 10:16:18;;;;;;;3.92;2.15;;;;;;;6.16;61.25;101949.63;5069160;28;20139;-70
2022/04/03 10:18:49;;;;;;;5.03;2.20;;;;;;;6.31;60.11;101943.53;5078736;28;20056;-73
2022/04/03 10:21:42;;;;;;;4.50;1.38;;;;;;;6.42;60.69;101941.94;5078706;28;20503;-72
2022/04/03 10:24:19;;;;;;;5.15;1.80;;;;;;;6.46;61.84;101943.69;5068146;28;20155;-72
2022/04/03 10:26:52;;;;;;;1.67;1.10;;;;;;;6.61;61.89;101936.72;5076367;28;20086;-71
2022/04/03 10:29:19;;;;;;;7.28;2.58;;;;;;;6.92;59.97;101934.25;5075676;28;20076;-73
2022/04/03 10:31:59;;;;;;;4.05;2.10;;;;;;;6.94;60.24;101927.25;5076960;28;20053;-71
2022/04/03 10:34:27;;;;;;;4.55;2.25;;;;;;;6.73;58.63;101922.97;5068024;28;20060;-72
2022/04/03 10:36:53;;;;;;;6.38;2.20;;;;;;;7.14;61.72;101914.50;5068735;28;20056;-71
2022/04/03 10:39:24;;;;;;;2.88;1.60;;;;;;;7.37;60.86;101910.13;5063809;28;20054;-73
2022/04/03 10:42:24;;;;;;;5.20;2.55;;;;;;;7.49;59.27;101921.91;5061354;28;20132;-71
2022/04/03 10:45:13;;;;;;;5.90;2.10;;;;;;;7.89;60.63;101916.38;5072426;28;20428;-73
2022/04/03 10:47:40;;;;;;;2.75;2.25;;;;;;;7.98;57.03;101917.88;5070962;28;20054;-73
2022/04/03 10:50:08;;;;;;;7.97;2.45;;;;;;;7.95;56.59;101906.72;5066612;28;20222;-71
2022/04/03 10:52:38;;;;;;;2.30;1.25;;;;;;;7.92;55.64;101904.66;5067590;28;20078;-72
2022/04/03 10:55:20;;;;;;;2.75;1.27;;;;;;;7.73;55.39;101901.78;5071882;28;20131;-72
2022/04/03 10:57:51;;;;;;;6.03;1.30;;;;;;;8.01;56.77;101902.56;5069706;28;20044;-71
2022/04/03 11:00:18;;;;;;;5.07;1.20;;;;;;;8.07;55.52;101899.19;5077468;28;20083;-74
2022/04/03 11:02:49;;;;;;;2.45;1.17;;;;;;;8.10;55.64;101905.16;5075483;28;20627;-72
2022/04/03 11:05:23;;;;;;;7.75;2.75;;;;;;;8.32;56.97;101908.19;5073119;28;20052;-72
2022/04/03 11:08:10;;;;;;;6.15;1.80;;;;;;;8.33;54.79;101893.22;5084037;28;20134;-73
2022/04/03 11:10:54;;;;;;;1.25;1.05;;;;;;;8.47;54.80;101885.31;5068211;28;20040;-73
2022/04/03 11:13:39;;;;;;;4.13;2.40;;;;;;;8.99;55.26;101891.38;5070997;28;20098;-73
2022/04/03 11:16:08;;;;;;;3.85;1.90;;;;;;;9.30;53.10;101887.75;5065677;28;20120;-72
2022/04/03 11:18:35;;;;;;;5.65;2.42;;;;;;;9.46;52.93;101882.97;5068222;28;20479;-72
2022/04/03 11:21:12;;;;;;;8.45;2.80;;;;;;;9.46;51.44;101877.44;5075418;28;20136;-73
2022/04/03 11:24:06;;;;;;;5.20;2.58;;;;;;;9.56;51.29;101877.69;5069997;28;20165;-72
2022/04/03 11:26:34;;;;;;;7.05;2.53;;;;;;;9.71;51.45;101879.59;5075793;28;20104;-72
2022/04/03 11:29:04;;;;;;;6.30;2.20;;;;;;;9.83;51.59;101873.09;5066851;28;20114;-72
2022/04/03 11:31:31;;;;;;;9.15;2.20;;;;;;;10.00;50.41;101870.66;5065467;28;20838;-73
2022/04/03 11:33:58;;;;;;;3.42;1.85;;;;;;;9.95;49.13;101862.69;5071610;28;20131;-71